Lithia, Virginia
Current Conditions -  °F | °C
As of 5:54 AM on Wednesday 26 Nov 2014 (Local Time) from KROA Reporting Station
Moderate Rain Moderate Rain  
Wind Chill: 33°   Ceiling: 1200
Heat Index: 39°   Visibility: 7mi
Dew Point: 36°   Wind: 9mph
Humidity: 89%   Direction: 360°N
Pressure: 30.05"   Gusts: NA
Location:  37.5115°N, 79.6704°W
Report Text: KROA 261054Z 36008KT 7SM RA BKN012 BKN023 OVC028 04/02 A3005 RMK AO2 SLP178 P0020 T00390022 $
Loading
Personal Weather Stations






























Interactive Weather Map New forecast layout! Learn more

10-Day Weather Forecast

Advertisements
Track Severe Weather on mobile